createdAt,value
2018-06-21T04:28:54.004Z,93.82
2018-06-21T04:29:55.402Z,93.15
2018-06-21T04:30:56.784Z,92.96
2018-06-21T04:31:58.170Z,93.44
2018-06-21T04:32:59.558Z,93.39
2018-06-21T04:34:00.944Z,92.68
2018-06-21T04:35:02.328Z,92.43
2018-06-21T04:36:03.720Z,92.53
2018-06-21T04:37:05.118Z,92.24
2018-06-21T04:38:06.511Z,91.76
2018-06-21T04:39:07.899Z,91.52
2018-06-21T04:40:09.291Z,90.56
2018-06-21T04:41:10.683Z,90.27
2018-06-21T04:42:12.069Z,89.74
2018-06-21T04:43:13.461Z,88.49
2018-06-21T04:44:15.579Z,87.38
2018-06-21T04:45:16.971Z,87.38
2018-06-21T04:46:18.374Z,86.52
2018-06-21T04:47:19.773Z,86.18
2018-06-21T04:48:21.171Z,85.11
2018-06-21T04:49:22.565Z,85.02
2018-06-21T04:50:23.957Z,84.19
2018-06-21T04:51:25.351Z,83.33
2018-06-21T04:52:26.750Z,82.50
2018-06-21T04:53:28.147Z,80.23
2018-06-21T04:54:29.541Z,80.04
2018-06-21T04:55:30.932Z,79.36
2018-06-21T04:56:32.330Z,79.46
2018-06-21T04:57:33.718Z,79.17
2018-06-21T04:58:35.112Z,78.79
2018-06-21T04:59:36.504Z,78.92
2018-06-21T05:00:37.892Z,78.98
2018-06-21T05:01:39.300Z,79.08
2018-06-21T05:02:40.696Z,79.27
2018-06-21T05:03:42.083Z,79.27
2018-06-21T05:04:43.502Z,80.04
2018-06-21T05:05:44.900Z,81.10
2018-06-21T05:06:46.298Z,81.39
2018-06-21T05:07:47.693Z,80.81
2018-06-21T05:08:49.087Z,81.54
2018-06-21T05:09:50.494Z,82.21
2018-06-21T05:10:51.882Z,82.31
2018-06-21T05:11:53.299Z,82.35
2018-06-21T05:12:54.683Z,82.35
2018-06-21T05:13:56.081Z,82.45
2018-06-21T05:14:57.489Z,82.83
2018-06-21T05:15:58.878Z,83.51
2018-06-21T05:17:00.304Z,83.22
2018-06-21T05:18:01.682Z,83.03
2018-06-21T05:19:03.080Z,82.93
2018-06-21T05:20:04.468Z,82.83
2018-06-21T05:21:05.877Z,83.22
2018-06-21T05:22:07.276Z,83.41
2018-06-21T05:23:09.522Z,83.12
2018-06-21T05:24:10.914Z,83.80
2018-06-21T05:25:12.358Z,83.80
2018-06-21T05:26:13.710Z,83.80
2018-06-21T05:27:15.105Z,82.87
2018-06-21T05:28:16.491Z,82.59
2018-06-21T05:29:17.890Z,81.62
2018-06-21T05:30:19.282Z,80.79
2018-06-21T05:31:20.680Z,80.02
2018-06-21T05:32:22.077Z,79.44
2018-06-21T05:33:23.478Z,79.19
2018-06-21T05:34:24.878Z,78.61
2018-06-21T05:35:26.277Z,77.88
2018-06-21T05:36:27.671Z,77.25
2018-06-21T05:37:29.100Z,76.67
2018-06-21T05:38:30.477Z,75.84
2018-06-21T05:39:31.865Z,74.83
2018-06-21T05:40:33.837Z,74.19
2018-06-21T05:41:35.220Z,74.13
2018-06-21T05:42:36.622Z,73.16
2018-06-21T05:43:38.544Z,72.72
2018-06-21T05:44:39.941Z,71.66
2018-06-21T05:45:41.334Z,70.14
2018-06-21T05:46:42.740Z,69.01
2018-06-21T05:47:44.136Z,68.27
2018-06-21T05:48:45.527Z,67.44
2018-06-21T05:49:46.922Z,65.92
2018-06-21T05:50:48.330Z,64.23
2018-06-21T05:51:49.720Z,62.32
2018-06-21T05:52:51.119Z,60.93
2018-06-21T05:53:52.512Z,58.46
2018-06-21T05:54:53.916Z,57.03
2018-06-21T05:55:55.312Z,55.30
2018-06-21T05:56:56.708Z,54.75
2018-06-21T05:57:58.111Z,54.46
2018-06-21T05:58:59.506Z,54.09
2018-06-21T06:00:00.901Z,53.24
2018-06-21T06:01:02.309Z,52.66
2018-06-21T06:02:03.772Z,51.97
2018-06-21T06:03:05.120Z,52.66
2018-06-21T06:04:06.519Z,51.87
2018-06-21T06:05:07.925Z,52.36
2018-06-21T06:06:09.329Z,51.68
2018-06-21T06:07:10.736Z,51.58
2018-06-21T06:08:12.166Z,51.97
2018-06-21T06:09:13.523Z,52.04
2018-06-21T06:10:14.928Z,52.63
2018-06-21T06:11:16.338Z,53.87
2018-06-21T06:12:17.746Z,54.30
2018-06-21T06:13:19.145Z,56.05
2018-06-21T06:14:21.462Z,56.15
2018-06-21T06:15:22.855Z,56.32
2018-06-21T06:16:24.263Z,57.07
2018-06-21T06:17:25.666Z,56.87
2018-06-21T06:18:27.060Z,57.36
2018-06-21T06:19:29.254Z,57.82
2018-06-21T06:20:30.642Z,58.59
2018-06-21T06:21:32.065Z,58.69
2018-06-21T06:22:33.463Z,59.38
2018-06-21T06:23:34.860Z,59.25
2018-06-21T06:24:36.273Z,59.54
2018-06-21T06:25:37.673Z,59.47
2018-06-21T06:26:39.073Z,59.05
2018-06-21T06:27:41.115Z,58.57
2018-06-21T06:28:43.506Z,58.73
2018-06-21T06:29:44.879Z,59.38
2018-06-21T06:30:46.294Z,60.16
2018-06-21T06:31:47.691Z,60.42
2018-06-21T06:32:49.099Z,60.91
2018-06-21T06:33:50.513Z,61.36
2018-06-21T06:34:51.912Z,61.75
2018-06-21T06:35:53.308Z,61.85
2018-06-21T06:36:54.717Z,62.59
2018-06-21T06:37:56.119Z,62.43
2018-06-21T06:38:57.526Z,62.13
2018-06-21T06:39:59.516Z,62.62
2018-06-21T06:41:00.906Z,62.82
2018-06-21T06:42:02.318Z,62.33
2018-06-21T06:43:03.712Z,62.82
2018-06-21T06:44:05.104Z,63.37
2018-06-21T06:45:06.514Z,63.20
2018-06-21T06:46:08.603Z,63.65
2018-06-21T06:47:09.983Z,63.27
2018-06-21T06:48:11.387Z,63.01
2018-06-21T06:49:12.794Z,63.40
2018-06-21T06:50:14.191Z,63.10
2018-06-21T06:51:15.582Z,63.13
2018-06-21T06:52:16.989Z,62.85
2018-06-21T06:53:18.386Z,61.68
2018-06-21T06:54:19.823Z,61.00
2018-06-21T06:55:21.193Z,61.39
2018-06-21T06:56:22.585Z,61.58
2018-06-21T06:57:23.993Z,60.91
2018-06-21T06:58:25.398Z,61.29
2018-06-21T06:59:26.789Z,60.55
2018-06-21T07:00:28.189Z,60.64
2018-06-21T07:01:29.582Z,59.84
2018-06-21T07:02:30.986Z,60.81
2018-06-21T07:03:32.384Z,60.91
2018-06-21T07:04:33.780Z,61.00
2018-06-21T07:05:35.188Z,60.71
2018-06-21T07:06:36.582Z,60.25
2018-06-21T07:07:37.991Z,60.45
2018-06-21T07:08:39.380Z,59.97
2018-06-21T07:09:40.773Z,59.97
2018-06-21T07:10:42.171Z,59.67
2018-06-21T07:11:43.586Z,59.67
2018-06-21T07:12:44.994Z,59.58
2018-06-21T07:13:46.392Z,59.48
2018-06-21T07:14:47.789Z,59.48
2018-06-21T07:15:49.184Z,59.38
2018-06-21T07:16:50.595Z,59.48
2018-06-21T07:17:51.981Z,59.28
2018-06-21T07:18:53.390Z,58.64
2018-06-21T07:19:54.787Z,58.93
2018-06-21T07:20:56.181Z,58.73
2018-06-21T07:21:57.580Z,58.57
2018-06-21T07:22:58.980Z,57.50
2018-06-21T07:24:00.377Z,57.31
2018-06-21T07:25:01.779Z,55.98
2018-06-21T07:26:03.201Z,55.39
2018-06-21T07:27:04.633Z,55.27
2018-06-21T07:28:05.993Z,54.39
2018-06-21T07:29:07.383Z,54.58
2018-06-21T07:30:08.803Z,54.97
2018-06-21T07:31:10.184Z,54.88
2018-06-21T07:32:11.595Z,54.58
2018-06-21T07:33:12.990Z,54.29
2018-06-21T07:34:14.380Z,54.58
2018-06-21T07:35:15.774Z,54.20
2018-06-21T07:36:17.180Z,54.29
2018-06-21T07:37:18.585Z,54.49
2018-06-21T07:38:19.982Z,54.29
2018-06-21T07:39:21.388Z,54.56
2018-06-21T07:40:22.790Z,54.85
2018-06-21T07:41:24.180Z,55.24
2018-06-21T07:42:25.583Z,55.33
2018-06-21T07:43:26.984Z,55.24
2018-06-21T07:44:28.397Z,54.94
2018-06-21T07:45:29.792Z,55.33
2018-06-21T07:46:31.191Z,54.94
2018-06-21T07:47:32.596Z,54.75
2018-06-21T07:48:34.003Z,54.46
2018-06-21T07:49:35.408Z,54.27
2018-06-21T07:50:36.807Z,54.66
2018-06-21T07:51:38.209Z,54.75
2018-06-21T07:52:39.613Z,54.56
2018-06-21T07:53:41.012Z,53.75
2018-06-21T07:54:42.405Z,55.02
2018-06-21T07:55:43.800Z,54.72
2018-06-21T07:56:46.182Z,54.90
2018-06-21T07:57:47.581Z,55.77
2018-06-21T07:58:48.971Z,55.96
2018-06-21T07:59:50.366Z,56.35
2018-06-21T08:00:51.756Z,56.61
2018-06-21T08:01:53.162Z,56.61
2018-06-21T08:02:54.548Z,57.09
2018-06-21T08:03:55.944Z,56.77
2018-06-21T08:04:57.350Z,57.29
2018-06-21T08:05:58.742Z,57.07
2018-06-21T08:07:00.140Z,57.26
2018-06-21T08:08:01.521Z,58.23
2018-06-21T08:09:02.922Z,58.23
2018-06-21T08:10:04.326Z,58.52
2018-06-21T08:11:05.728Z,59.36
2018-06-21T08:12:07.127Z,59.46
2018-06-21T08:13:09.187Z,59.36
2018-06-21T08:14:10.591Z,59.75
2018-06-21T08:15:11.989Z,59.82
2018-06-21T08:16:13.391Z,60.30
2018-06-21T08:17:15.537Z,60.40
2018-06-21T08:18:16.937Z,60.11
2018-06-21T08:19:18.340Z,60.69
2018-06-21T08:20:19.806Z,60.85
2018-06-21T08:21:21.141Z,61.33
2018-06-21T08:22:22.549Z,61.63
2018-06-21T08:23:23.943Z,61.72
2018-06-21T08:24:25.345Z,61.63
2018-06-21T08:25:26.737Z,61.82
2018-06-21T08:26:28.127Z,61.72
2018-06-21T08:27:29.530Z,61.72
2018-06-21T08:28:30.917Z,61.72
2018-06-21T08:29:32.322Z,61.92
2018-06-21T08:30:33.724Z,61.72
2018-06-21T08:31:35.132Z,62.01
2018-06-21T08:32:36.544Z,62.21
2018-06-21T08:33:37.940Z,62.40
2018-06-21T08:34:39.393Z,62.30
2018-06-21T08:35:40.789Z,62.69
2018-06-21T08:36:42.186Z,62.50
2018-06-21T08:37:43.593Z,62.79
2018-06-21T08:38:45.022Z,62.30
2018-06-21T08:39:46.400Z,62.98
2018-06-21T08:40:47.808Z,63.18
2018-06-21T08:41:49.202Z,62.59
2018-06-21T08:42:50.628Z,62.50
2018-06-21T08:43:52.028Z,62.79
2018-06-21T08:44:53.425Z,61.92
2018-06-21T08:45:54.825Z,61.53
2018-06-21T08:46:56.216Z,61.82
2018-06-21T08:47:57.624Z,61.72
2018-06-21T08:48:59.019Z,62.30
2018-06-21T08:50:00.417Z,62.50
2018-06-21T08:51:01.810Z,62.30
2018-06-21T08:52:03.264Z,62.30
2018-06-21T08:53:04.623Z,62.69
2018-06-21T08:54:06.001Z,62.66
2018-06-21T08:55:07.402Z,62.40
2018-06-21T08:56:08.796Z,62.59
2018-06-21T08:57:10.192Z,63.27
2018-06-21T08:58:11.591Z,62.40
2018-06-21T08:59:12.985Z,62.30
2018-06-21T09:00:14.385Z,62.30
2018-06-21T09:01:15.778Z,62.66
2018-06-21T09:02:17.176Z,63.02
2018-06-21T09:03:18.584Z,62.73
2018-06-21T09:04:19.972Z,63.28
2018-06-21T09:05:21.363Z,64.11
2018-06-21T09:06:22.777Z,64.95
2018-06-21T09:07:24.166Z,65.69
2018-06-21T09:08:25.558Z,66.17
2018-06-21T09:09:26.958Z,66.24
2018-06-21T09:10:28.350Z,66.24
2018-06-21T09:11:29.740Z,67.94
2018-06-21T09:12:31.137Z,68.13
2018-06-21T09:13:32.550Z,67.74
2018-06-21T09:14:33.934Z,67.65
2018-06-21T09:15:35.329Z,67.13
2018-06-21T09:16:36.719Z,67.13
2018-06-21T09:17:38.109Z,67.87
2018-06-21T09:18:39.514Z,68.84
2018-06-21T09:19:40.906Z,68.64
2018-06-21T09:20:42.297Z,68.70
2018-06-21T09:21:43.692Z,68.99
2018-06-21T09:22:45.096Z,68.70
2018-06-21T09:23:46.487Z,68.80
2018-06-21T09:24:47.884Z,69.06
2018-06-21T09:25:49.277Z,69.63
2018-06-21T09:26:50.682Z,69.73
2018-06-21T09:27:52.068Z,69.89
2018-06-21T09:28:53.456Z,70.46
2018-06-21T09:29:54.858Z,70.65
2018-06-21T09:30:56.250Z,70.65
2018-06-21T09:31:57.649Z,71.14
2018-06-21T09:32:59.044Z,71.33
2018-06-21T09:34:00.426Z,71.67
2018-06-21T09:35:01.833Z,71.77
2018-06-21T09:36:03.224Z,72.16
2018-06-21T09:37:04.620Z,71.96
2018-06-21T09:38:06.008Z,72.06
2018-06-21T09:39:07.412Z,71.48
2018-06-21T09:40:08.807Z,71.52
2018-06-21T09:41:10.210Z,71.61
2018-06-21T09:42:11.595Z,71.58
2018-06-21T09:43:12.989Z,72.06
2018-06-21T09:44:14.385Z,72.06
2018-06-21T09:45:15.775Z,72.16
2018-06-21T09:46:17.167Z,72.73
2018-06-21T09:47:18.566Z,73.31
2018-06-21T09:48:19.945Z,73.18
2018-06-21T09:49:21.347Z,73.75
2018-06-21T09:50:22.736Z,73.94
2018-06-21T09:51:24.128Z,74.71
2018-06-21T09:52:26.166Z,74.62
2018-06-21T09:53:27.548Z,75.29
2018-06-21T09:54:28.938Z,76.06
2018-06-21T09:55:30.330Z,76.34
2018-06-21T09:56:31.711Z,76.64
2018-06-21T09:57:33.106Z,76.73
2018-06-21T09:58:34.488Z,77.11
2018-06-21T09:59:35.887Z,77.46
2018-06-21T10:00:37.278Z,77.36
2018-06-21T10:01:38.681Z,78.80
2018-06-21T10:02:40.068Z,80.15
2018-06-21T10:03:41.474Z,81.74
2018-06-21T10:04:42.863Z,82.79
2018-06-21T10:05:44.261Z,83.47
2018-06-21T10:06:45.674Z,84.19
2018-06-21T10:07:47.060Z,84.86
2018-06-21T10:08:48.713Z,86.11
2018-06-21T10:09:50.103Z,85.82
2018-06-21T10:10:51.485Z,86.68
2018-06-21T10:11:52.877Z,87.84
2018-06-21T10:12:54.296Z,87.84
2018-06-21T10:13:55.684Z,87.35
2018-06-21T10:14:57.076Z,87.26
2018-06-21T10:15:58.464Z,87.74
2018-06-21T10:16:59.866Z,88.08
2018-06-21T10:18:01.270Z,88.46
2018-06-21T10:19:02.654Z,88.37
2018-06-21T10:20:04.048Z,88.37
2018-06-21T10:21:05.450Z,88.94
2018-06-21T10:22:06.840Z,89.42
2018-06-21T10:23:08.262Z,89.32
2018-06-21T10:24:09.634Z,89.23
2018-06-21T10:25:11.014Z,89.23
2018-06-21T10:26:12.409Z,89.90
2018-06-21T10:27:13.790Z,90.23
2018-06-21T10:28:15.192Z,90.57
2018-06-21T10:29:16.583Z,90.95
2018-06-21T10:30:17.974Z,91.58
2018-06-21T10:31:19.363Z,91.96
2018-06-21T10:32:20.756Z,91.19
2018-06-21T10:33:22.152Z,92.06
2018-06-21T10:34:23.530Z,93.21
2018-06-21T10:35:24.931Z,93.21
2018-06-21T10:36:26.316Z,92.35
2018-06-21T10:37:27.711Z,92.82
2018-06-21T10:38:29.103Z,93.69
2018-06-21T10:39:30.481Z,93.59
2018-06-21T10:40:31.875Z,93.40
2018-06-21T10:41:33.269Z,94.17
2018-06-21T10:42:34.681Z,93.78
2018-06-21T10:43:36.054Z,93.88
2018-06-21T10:44:37.442Z,93.69
2018-06-21T10:45:38.835Z,94.07
2018-06-21T10:46:40.221Z,93.88
2018-06-21T10:47:41.607Z,93.59
2018-06-21T10:48:43.018Z,94.17
2018-06-21T10:49:44.399Z,94.84
2018-06-21T10:50:45.787Z,95.51
2018-06-21T10:51:47.181Z,95.60
2018-06-21T10:52:48.581Z,95.60
2018-06-21T10:53:49.973Z,95.51
2018-06-21T10:54:51.369Z,95.51
2018-06-21T10:55:52.757Z,95.70
2018-06-21T10:56:54.148Z,95.94
2018-06-21T10:57:55.528Z,95.84
2018-06-21T10:58:56.949Z,97.09
2018-06-21T10:59:58.339Z,95.46
2018-06-21T11:00:59.725Z,94.98
2018-06-21T11:02:01.971Z,96.18
2018-06-21T11:03:03.365Z,96.18
2018-06-21T11:04:04.758Z,96.89
2018-06-21T11:05:06.147Z,97.09
2018-06-21T11:06:07.543Z,97.14
2018-06-21T11:07:08.929Z,95.94
2018-06-21T11:08:10.319Z,95.75
2018-06-21T11:09:11.714Z,95.84
2018-06-21T11:10:13.105Z,94.84
2018-06-21T11:11:14.504Z,94.98
2018-06-21T11:12:15.897Z,93.93
2018-06-21T11:13:17.288Z,94.21
2018-06-21T11:14:18.686Z,94.50
2018-06-21T11:15:20.076Z,94.84
2018-06-21T11:16:21.470Z,93.64
2018-06-21T11:17:22.856Z,93.64
2018-06-21T11:18:24.240Z,94.79
2018-06-21T11:19:25.627Z,94.50
2018-06-21T11:20:27.023Z,93.21
2018-06-21T11:21:28.438Z,92.40
2018-06-21T11:22:29.806Z,92.30
2018-06-21T11:23:31.198Z,92.58
2018-06-21T11:24:32.596Z,92.11
2018-06-21T11:25:33.982Z,92.40
2018-06-21T11:26:35.370Z,91.53
2018-06-21T11:27:36.795Z,92.21
2018-06-21T11:28:38.155Z,92.58
2018-06-21T11:29:39.543Z,93.26
2018-06-21T11:30:40.935Z,92.30
2018-06-21T11:31:42.285Z,92.49
2018-06-21T11:32:43.671Z,93.45
2018-06-21T11:33:45.063Z,93.16
2018-06-21T11:34:46.403Z,92.87
2018-06-21T11:35:47.796Z,93.07
2018-06-21T11:36:49.149Z,93.35
2018-06-21T11:37:50.505Z,93.16
2018-06-21T11:38:51.846Z,92.87
2018-06-21T11:39:53.233Z,92.30
2018-06-21T11:40:54.631Z,92.58
2018-06-21T11:41:56.026Z,92.78
2018-06-21T11:42:57.416Z,93.35
2018-06-21T11:43:58.807Z,93.16
2018-06-21T11:45:00.200Z,93.83
2018-06-21T11:46:01.581Z,93.83
2018-06-21T11:47:02.975Z,94.55
2018-06-21T11:48:04.368Z,94.26
2018-06-21T11:49:05.755Z,93.79
2018-06-21T11:50:07.158Z,94.36
2018-06-21T11:51:08.552Z,94.36
2018-06-21T11:52:09.907Z,94.65
2018-06-21T11:53:11.951Z,94.65
2018-06-21T11:54:13.355Z,94.65
2018-06-21T11:55:14.758Z,94.74
2018-06-21T11:56:16.114Z,94.84
2018-06-21T11:57:17.521Z,94.07
2018-06-21T11:58:18.907Z,94.55
2018-06-21T11:59:20.303Z,95.03
2018-06-21T12:00:21.653Z,95.79
2018-06-21T12:01:23.051Z,95.79
2018-06-21T12:02:24.445Z,95.22
2018-06-21T12:03:25.880Z,95.17
2018-06-21T12:04:27.234Z,95.12
2018-06-21T12:05:28.638Z,94.98
2018-06-21T12:06:30.030Z,96.32
2018-06-21T12:07:31.432Z,96.70
2018-06-21T12:08:33.334Z,95.84
2018-06-21T12:09:34.720Z,94.79
2018-06-21T12:10:36.149Z,94.60
2018-06-21T12:11:37.532Z,94.79
2018-06-21T12:12:38.951Z,94.69
2018-06-21T12:13:40.364Z,94.84
2018-06-21T12:14:41.764Z,96.18
2018-06-21T12:15:43.168Z,96.51
2018-06-21T12:16:44.585Z,95.41
2018-06-21T12:17:45.980Z,95.61
2018-06-21T12:18:47.379Z,95.51
2018-06-21T12:19:48.771Z,96.08
2018-06-21T12:20:50.194Z,95.75
2018-06-21T12:21:51.567Z,95.41
2018-06-21T12:22:52.961Z,95.79
2018-06-21T12:23:54.354Z,95.89
2018-06-21T12:24:55.749Z,96.18
2018-06-21T12:25:57.187Z,96.66
2018-06-21T12:26:58.540Z,96.89
2018-06-21T12:27:59.967Z,96.32
2018-06-21T12:29:01.341Z,95.75
2018-06-21T12:30:02.745Z,96.22
2018-06-21T12:31:04.128Z,96.70
2018-06-21T12:32:05.555Z,96.22
2018-06-21T12:33:06.924Z,95.36
2018-06-21T12:34:08.323Z,94.31
2018-06-21T12:35:09.718Z,94.35
2018-06-21T12:36:11.118Z,95.41
2018-06-21T12:37:12.512Z,95.79
2018-06-21T12:38:13.904Z,93.78
2018-06-21T12:39:15.318Z,94.07
2018-06-21T12:40:16.696Z,94.07
2018-06-21T12:41:18.088Z,93.02
2018-06-21T12:42:19.476Z,92.92
2018-06-21T12:43:20.880Z,92.82
2018-06-21T12:44:22.270Z,91.67
2018-06-21T12:45:23.664Z,91.14
2018-06-21T12:46:25.066Z,91.53
2018-06-21T12:47:26.462Z,92.10
2018-06-21T12:48:27.849Z,92.49
2018-06-21T12:49:30.029Z,92.68
2018-06-21T12:50:31.423Z,91.43
2018-06-21T12:51:32.819Z,91.05
2018-06-21T12:52:34.265Z,91.14
2018-06-21T12:53:35.609Z,91.14
2018-06-21T12:54:37.004Z,90.67
2018-06-21T12:55:38.389Z,90.67
2018-06-21T12:56:39.777Z,90.19
2018-06-21T12:57:41.173Z,90.38
2018-06-21T12:58:43.110Z,89.23
2018-06-21T12:59:43.913Z,89.32
2018-06-21T13:00:45.313Z,89.71
2018-06-21T13:01:46.708Z,89.90
2018-06-21T13:02:48.103Z,90.09
2018-06-21T13:03:49.504Z,88.84
2018-06-21T13:04:50.890Z,88.65
2018-06-21T13:05:52.283Z,88.65
2018-06-21T13:06:53.670Z,88.84
2018-06-21T13:07:55.058Z,89.13
2018-06-21T13:08:56.437Z,88.65
2018-06-21T13:09:57.838Z,89.32
2018-06-21T13:10:59.230Z,89.13
2018-06-21T13:12:00.633Z,89.32
2018-06-21T13:13:02.017Z,89.13
2018-06-21T13:14:03.404Z,90.00
2018-06-21T13:15:04.788Z,90.76
2018-06-21T13:16:06.185Z,90.38
2018-06-21T13:17:07.567Z,90.33
2018-06-21T13:18:08.968Z,91.29
2018-06-21T13:19:10.362Z,91.29
2018-06-21T13:20:11.773Z,90.05
2018-06-21T13:21:13.181Z,86.12
2018-06-21T13:22:14.588Z,84.78
2018-06-21T13:23:15.968Z,83.34
2018-06-21T13:24:17.361Z,82.96
2018-06-21T13:25:18.765Z,83.44
2018-06-21T13:26:20.155Z,83.25
2018-06-21T13:27:21.540Z,82.00
2018-06-21T13:28:22.939Z,82.19
2018-06-21T13:29:24.348Z,81.90
2018-06-21T13:30:25.740Z,81.90
2018-06-21T13:31:27.130Z,80.08
2018-06-21T13:32:28.515Z,78.45
2018-06-21T13:33:29.924Z,79.60
2018-06-21T13:34:31.315Z,80.94
2018-06-21T13:35:32.709Z,81.04
2018-06-21T13:36:34.110Z,80.43
2018-06-21T13:37:35.500Z,80.62
2018-06-21T13:38:36.898Z,80.66
2018-06-21T13:39:38.305Z,80.33
2018-06-21T13:40:39.690Z,80.04
2018-06-21T13:41:41.096Z,80.52
2018-06-21T13:42:42.498Z,80.04
2018-06-21T13:43:43.880Z,79.57
2018-06-21T13:44:45.272Z,79.28
2018-06-21T13:45:46.669Z,79.66
2018-06-21T13:46:48.064Z,79.95
2018-06-21T13:47:49.473Z,81.05
2018-06-21T13:48:50.873Z,81.05
2018-06-21T13:49:52.248Z,80.38
2018-06-21T13:50:53.640Z,80.00
2018-06-21T13:51:55.025Z,79.62
2018-06-21T13:52:56.434Z,80.63
2018-06-21T13:53:57.823Z,79.29
2018-06-21T13:54:59.217Z,80.35
2018-06-21T13:56:00.611Z,80.82
2018-06-21T13:57:02.002Z,82.17
2018-06-21T13:58:03.416Z,82.17
2018-06-21T13:59:04.813Z,81.88
2018-06-21T14:00:06.208Z,81.88
2018-06-21T14:01:07.592Z,83.40
2018-06-21T14:02:08.982Z,83.03
2018-06-21T14:03:10.389Z,82.45
2018-06-21T14:04:11.785Z,82.64
2018-06-21T14:05:13.175Z,81.88
2018-06-21T14:06:14.579Z,82.74
2018-06-21T14:07:15.978Z,82.74
2018-06-21T14:08:17.429Z,82.54
2018-06-21T14:09:18.741Z,82.93
2018-06-21T14:10:20.137Z,83.03
2018-06-21T14:11:21.528Z,82.93
2018-06-21T14:12:22.930Z,82.35
2018-06-21T14:13:24.323Z,82.26
2018-06-21T14:14:25.722Z,81.78
2018-06-21T14:15:27.110Z,82.54
2018-06-21T14:16:28.500Z,82.11
2018-06-21T14:17:29.909Z,81.92
2018-06-21T14:18:31.302Z,81.63
2018-06-21T14:19:32.695Z,82.78
2018-06-21T14:20:34.113Z,81.73
2018-06-21T14:21:35.435Z,81.92
2018-06-21T14:22:36.831Z,81.54
2018-06-21T14:23:38.316Z,81.34
2018-06-21T14:24:39.591Z,82.40
2018-06-21T14:25:40.976Z,82.30
2018-06-21T14:26:42.381Z,81.38
2018-06-21T14:27:43.773Z,81.48
2018-06-21T14:28:45.177Z,81.00
2018-06-21T14:29:46.556Z,82.15
2018-06-21T14:30:47.968Z,80.71
2018-06-21T14:31:49.367Z,80.24
2018-06-21T14:32:50.764Z,80.04
2018-06-21T14:33:52.151Z,80.71
2018-06-21T14:34:53.540Z,78.89
2018-06-21T14:35:54.933Z,79.13
2018-06-21T14:36:56.339Z,76.50
2018-06-21T14:37:57.741Z,76.21
2018-06-21T14:38:59.144Z,75.01
2018-06-21T14:40:00.536Z,75.26
2018-06-21T14:41:01.934Z,74.11
2018-06-21T14:42:03.327Z,75.26
2018-06-21T14:43:04.721Z,75.93
2018-06-21T14:44:06.116Z,76.02
2018-06-21T14:45:07.514Z,76.31
2018-06-21T14:46:08.909Z,76.31
2018-06-21T14:47:10.302Z,75.39
2018-06-21T14:48:11.799Z,75.77
2018-06-21T14:49:13.099Z,75.58
2018-06-21T14:50:14.497Z,75.58
2018-06-21T14:51:15.889Z,76.64
2018-06-21T14:52:17.287Z,74.82
2018-06-21T14:53:18.688Z,74.52
2018-06-21T14:54:20.082Z,72.71
2018-06-21T14:55:21.481Z,72.23
2018-06-21T14:56:22.866Z,71.94
2018-06-21T14:57:24.256Z,71.56
2018-06-21T14:58:25.658Z,71.56
2018-06-21T14:59:27.056Z,74.43
2018-06-21T15:00:28.444Z,75.58
2018-06-21T15:01:29.846Z,72.90
2018-06-21T15:02:31.238Z,71.08
2018-06-21T15:03:32.617Z,71.08
2018-06-21T15:04:34.012Z,71.84
2018-06-21T15:05:35.401Z,71.40
2018-06-21T15:06:36.818Z,69.93
2018-06-21T15:07:38.203Z,69.17
2018-06-21T15:08:39.595Z,70.50
2018-06-21T15:09:40.977Z,70.79
2018-06-21T15:10:42.376Z,70.70
2018-06-21T15:11:43.762Z,69.54
2018-06-21T15:12:45.148Z,69.35
2018-06-21T15:13:46.542Z,68.01
2018-06-21T15:14:47.938Z,68.21
2018-06-21T15:15:49.323Z,68.49
2018-06-21T15:16:50.720Z,68.78
2018-06-21T15:17:52.118Z,68.68
2018-06-21T15:18:53.510Z,69.26
2018-06-21T15:19:54.897Z,69.45
2018-06-21T15:20:56.287Z,68.87
2018-06-21T15:21:57.678Z,69.35
2018-06-21T15:22:59.095Z,69.35
2018-06-21T15:24:00.470Z,69.17
2018-06-21T15:25:01.859Z,70.70
2018-06-21T15:26:03.439Z,70.60
2018-06-21T15:27:04.826Z,70.60
2018-06-21T15:28:06.220Z,70.21
2018-06-21T15:29:07.624Z,70.41
2018-06-21T15:30:08.969Z,71.84
2018-06-21T15:31:10.364Z,73.19
2018-06-21T15:32:11.719Z,72.77
2018-06-21T15:33:13.098Z,74.30
2018-06-21T15:34:14.443Z,75.83
2018-06-21T15:35:15.839Z,76.94
2018-06-21T15:36:17.194Z,76.46
2018-06-21T15:37:19.245Z,77.70
2018-06-21T15:38:20.644Z,78.95
2018-06-21T15:39:21.997Z,80.73
2018-06-21T15:40:23.350Z,80.73
2018-06-21T15:41:24.749Z,81.21
2018-06-21T15:42:26.131Z,80.54
2018-06-21T15:43:27.527Z,81.49
2018-06-21T15:44:28.882Z,82.45
2018-06-21T15:45:30.339Z,81.78
2018-06-21T15:46:31.674Z,81.59
2018-06-21T15:47:33.093Z,81.30
2018-06-21T15:48:34.487Z,81.49
2018-06-21T15:49:35.875Z,82.17
2018-06-21T15:50:37.269Z,83.40
2018-06-21T15:51:38.729Z,83.69
2018-06-21T15:52:40.026Z,84.27
2018-06-21T15:53:41.425Z,85.03
2018-06-21T15:54:42.851Z,85.80
2018-06-21T15:55:44.214Z,84.88
2018-06-21T15:56:45.599Z,84.75
2018-06-21T15:57:46.982Z,84.17
2018-06-21T15:58:48.380Z,83.22
2018-06-21T15:59:49.763Z,83.64
2018-06-21T16:00:51.154Z,83.98
2018-06-21T16:01:52.536Z,83.69
2018-06-21T16:02:53.933Z,83.36
2018-06-21T16:03:55.331Z,83.36
2018-06-21T16:04:56.711Z,83.16
2018-06-21T16:05:58.116Z,83.64
2018-06-21T16:06:59.509Z,84.02
2018-06-21T16:08:00.889Z,81.44
2018-06-21T16:09:02.281Z,79.91
2018-06-21T16:10:04.347Z,79.24
2018-06-21T16:11:05.746Z,78.47
2018-06-21T16:12:07.137Z,78.47
2018-06-21T16:13:08.515Z,78.09
2018-06-21T16:14:09.927Z,77.23
2018-06-21T16:15:11.315Z,77.33
2018-06-21T16:16:12.749Z,77.23
2018-06-21T16:17:14.142Z,75.31
2018-06-21T16:18:15.531Z,74.90
2018-06-21T16:19:16.953Z,74.70
2018-06-21T16:20:18.351Z,74.70
2018-06-21T16:21:19.728Z,75.76
2018-06-21T16:22:21.131Z,76.52
2018-06-21T16:23:22.509Z,76.71
2018-06-21T16:24:23.903Z,76.23
2018-06-21T16:25:25.293Z,74.26
2018-06-21T16:26:26.684Z,74.36
2018-06-21T16:27:28.086Z,73.97
2018-06-21T16:28:29.478Z,72.69
2018-06-21T16:29:30.879Z,72.79
2018-06-21T16:30:32.220Z,72.83
2018-06-21T16:31:33.606Z,72.69
2018-06-21T16:32:35.005Z,72.50
2018-06-21T16:33:36.449Z,72.31
2018-06-21T16:34:37.740Z,72.22
2018-06-21T16:35:39.126Z,71.83
2018-06-21T16:36:40.521Z,71.83
2018-06-21T16:37:42.484Z,71.83
2018-06-21T16:38:43.885Z,71.36
2018-06-21T16:39:45.284Z,71.36
2018-06-21T16:40:46.702Z,70.34
2018-06-21T16:41:48.062Z,70.40
2018-06-21T16:42:49.451Z,70.91
2018-06-21T16:43:50.847Z,70.68
2018-06-21T16:44:52.232Z,70.78
2018-06-21T16:45:53.631Z,70.87
2018-06-21T16:46:55.013Z,70.40
2018-06-21T16:47:56.422Z,70.78
2018-06-21T16:48:57.815Z,70.68
2018-06-21T16:49:59.194Z,70.87
2018-06-21T16:51:00.656Z,70.50
2018-06-21T16:52:01.970Z,70.50
2018-06-21T16:53:03.348Z,70.68
2018-06-21T16:54:04.744Z,70.68
2018-06-21T16:55:06.125Z,71.07
2018-06-21T16:56:07.478Z,71.36
2018-06-21T16:57:08.862Z,71.64
2018-06-21T16:58:10.246Z,72.02
2018-06-21T16:59:11.705Z,71.93
2018-06-21T17:00:13.077Z,71.73
2018-06-21T17:01:14.587Z,71.16
2018-06-21T17:02:16.007Z,70.78
2018-06-21T17:03:17.346Z,71.26
2018-06-21T17:04:18.755Z,71.36
2018-06-21T17:05:20.143Z,72.22
2018-06-21T17:06:21.545Z,72.22
2018-06-21T17:07:23.404Z,71.93
2018-06-21T17:08:24.810Z,72.60
2018-06-21T17:09:26.228Z,72.79
2018-06-21T17:10:27.619Z,72.12
2018-06-21T17:11:28.993Z,71.45
2018-06-21T17:12:30.387Z,71.26
2018-06-21T17:13:31.786Z,70.78
2018-06-21T17:14:33.176Z,71.07
2018-06-21T17:15:34.572Z,70.59
2018-06-21T17:16:35.963Z,71.64
2018-06-21T17:17:38.231Z,71.45
2018-06-21T17:18:39.599Z,72.12
2018-06-21T17:19:40.987Z,72.69
2018-06-21T17:20:42.373Z,73.08
2018-06-21T17:21:43.771Z,73.17
2018-06-21T17:22:45.160Z,73.36
2018-06-21T17:23:46.552Z,73.65
2018-06-21T17:24:47.932Z,73.75
2018-06-21T17:25:49.324Z,72.60
2018-06-21T17:26:50.726Z,72.41
2018-06-21T17:27:52.122Z,72.50
2018-06-21T17:28:53.514Z,71.73
2018-06-21T17:29:54.924Z,71.64
2018-06-21T17:30:56.318Z,71.16
2018-06-21T17:31:57.706Z,71.07
2018-06-21T17:32:59.098Z,71.26
2018-06-21T17:34:00.478Z,70.21
2018-06-21T17:35:01.925Z,69.73
2018-06-21T17:36:03.350Z,69.64
2018-06-21T17:37:04.820Z,69.44
2018-06-21T17:38:06.057Z,69.15
2018-06-21T17:39:07.445Z,69.35